createdAt,value
2022-10-05T00:02:25.992Z,1.60
2022-10-05T00:04:55.973Z,1.38
2022-10-05T00:07:24.182Z,1.88
2022-10-05T00:09:59.175Z,1.55
2022-10-05T00:12:28.364Z,1.45
2022-10-05T00:15:01.249Z,1.50
2022-10-05T00:17:30.127Z,1.63
2022-10-05T00:19:56.961Z,1.70
2022-10-05T00:22:32.930Z,1.90
2022-10-05T00:25:03.411Z,1.30
2022-10-05T00:27:35.992Z,1.95
2022-10-05T00:30:12.819Z,1.92
2022-10-05T00:32:39.227Z,1.45
2022-10-05T00:35:06.111Z,1.40
2022-10-05T00:37:32.557Z,1.73
2022-10-05T00:39:58.879Z,1.70
2022-10-05T00:42:31.008Z,1.90
2022-10-05T00:45:05.650Z,1.73
2022-10-05T00:47:36.307Z,1.33
2022-10-05T00:50:27.030Z,1.70
2022-10-05T00:53:08.882Z,1.63
2022-10-05T00:55:54.674Z,1.65
2022-10-05T00:58:45.647Z,1.77
2022-10-05T01:01:17.867Z,2.05
2022-10-05T01:04:06.371Z,1.92
2022-10-05T01:07:13.376Z,1.80
2022-10-05T01:09:51.873Z,1.70
2022-10-05T01:12:42.356Z,1.58
2022-10-05T01:15:16.102Z,1.65
2022-10-05T01:17:59.272Z,1.80
2022-10-05T01:20:52.766Z,1.80
2022-10-05T01:23:39.626Z,2.10
2022-10-05T01:26:18.004Z,2.03
2022-10-05T01:28:52.146Z,2.05
2022-10-05T01:31:23.512Z,2.05
2022-10-05T01:34:11.590Z,2.13
2022-10-05T01:37:07.137Z,2.10
2022-10-05T01:39:46.672Z,1.85
2022-10-05T01:42:51.585Z,2.35
2022-10-05T01:45:49.301Z,1.48
2022-10-05T01:48:26.852Z,1.98
2022-10-05T01:51:22.067Z,1.88
2022-10-05T01:53:54.002Z,2.00
2022-10-05T01:56:38.115Z,2.40
2022-10-05T01:59:11.034Z,2.65
2022-10-05T02:02:01.270Z,1.85
2022-10-05T02:05:01.050Z,2.03
2022-10-05T02:07:28.843Z,1.40
2022-10-05T02:10:00.519Z,2.15
2022-10-05T02:12:31.365Z,2.45
2022-10-05T02:15:06.711Z,1.75
2022-10-05T02:17:40.381Z,1.60
2022-10-05T02:20:11.531Z,3.10
2022-10-05T02:22:39.982Z,1.85
2022-10-05T02:25:13.301Z,1.92
2022-10-05T02:27:47.808Z,2.55
2022-10-05T02:30:16.970Z,2.30
2022-10-05T02:32:53.644Z,2.35
2022-10-05T02:35:21.662Z,2.55
2022-10-05T02:38:11.744Z,2.17
2022-10-05T02:41:04.666Z,2.00
2022-10-05T02:43:53.032Z,2.13
2022-10-05T02:46:30.364Z,2.55
2022-10-05T02:49:24.129Z,1.70
2022-10-05T02:52:17.976Z,2.63
2022-10-05T02:55:00.022Z,2.33
2022-10-05T02:57:34.202Z,2.67
2022-10-05T03:00:09.301Z,3.13
2022-10-05T03:02:50.943Z,2.30
2022-10-05T03:05:26.993Z,2.72
2022-10-05T03:08:06.352Z,2.72
2022-10-05T03:11:04.614Z,2.70
2022-10-05T03:13:47.797Z,2.28
2022-10-05T03:16:39.457Z,2.60
2022-10-05T03:19:36.184Z,2.47
2022-10-05T03:22:17.735Z,3.58
2022-10-05T03:25:38.060Z,2.88
2022-10-05T03:28:35.159Z,2.70
2022-10-05T03:31:10.945Z,2.53
2022-10-05T03:33:46.792Z,2.85
2022-10-05T03:36:25.210Z,2.70
2022-10-05T03:39:08.945Z,2.83
2022-10-05T03:41:49.934Z,3.15
2022-10-05T03:44:36.821Z,2.75
2022-10-05T03:47:03.043Z,2.80
2022-10-05T03:49:47.847Z,2.88
2022-10-05T03:52:32.442Z,2.78
2022-10-05T03:55:12.721Z,3.08
2022-10-05T03:57:41.301Z,3.00
2022-10-05T04:00:17.786Z,2.80
2022-10-05T04:03:00.653Z,3.30
2022-10-05T04:05:35.529Z,3.53
2022-10-05T04:08:07.807Z,3.05
2022-10-05T04:10:56.489Z,3.05
2022-10-05T04:13:33.755Z,2.95
2022-10-05T04:16:12.836Z,3.08
2022-10-05T04:18:45.344Z,2.78
2022-10-05T04:21:26.020Z,2.70
2022-10-05T04:24:13.392Z,2.33
2022-10-05T04:26:46.000Z,3.53
2022-10-05T04:29:24.408Z,3.35
2022-10-05T04:32:03.039Z,3.00
2022-10-05T04:34:42.109Z,3.30
2022-10-05T04:37:19.782Z,3.53
2022-10-05T04:40:34.031Z,2.90
2022-10-05T04:43:22.457Z,2.85
2022-10-05T04:46:32.843Z,2.97
2022-10-05T04:49:42.284Z,3.22
2022-10-05T04:52:20.481Z,3.17
2022-10-05T04:54:58.740Z,3.70
2022-10-05T04:57:41.463Z,3.10
2022-10-05T05:00:29.158Z,3.17
2022-10-05T05:03:15.190Z,3.50
2022-10-05T05:06:17.495Z,3.22
2022-10-05T05:09:09.543Z,4.03
2022-10-05T05:11:56.740Z,3.25
2022-10-05T05:14:52.637Z,3.25
2022-10-05T05:17:57.694Z,2.95
2022-10-05T05:20:39.273Z,3.05
2022-10-05T05:23:17.386Z,3.50
2022-10-05T05:25:46.482Z,3.90
2022-10-05T05:28:25.650Z,3.88
2022-10-05T05:30:55.132Z,4.30
2022-10-05T05:33:47.986Z,3.15
2022-10-05T05:36:45.537Z,3.58
2022-10-05T05:39:11.936Z,3.40
2022-10-05T05:41:42.625Z,3.22
2022-10-05T05:44:25.894Z,3.58
2022-10-05T05:47:29.440Z,4.15
2022-10-05T05:50:19.184Z,3.60
2022-10-05T05:53:03.626Z,3.15
2022-10-05T05:55:38.601Z,4.45
2022-10-05T05:58:17.245Z,3.00
2022-10-05T06:00:55.068Z,4.57
2022-10-05T06:03:35.411Z,3.30
2022-10-05T06:06:06.650Z,3.45
2022-10-05T06:08:41.233Z,4.00
2022-10-05T06:11:22.780Z,3.87
2022-10-05T06:13:49.540Z,3.80
2022-10-05T06:16:25.544Z,4.05
2022-10-05T06:18:57.227Z,3.60
2022-10-05T06:21:41.462Z,3.85
2022-10-05T06:24:31.567Z,4.07
2022-10-05T06:27:34.704Z,4.30
2022-10-05T06:30:13.522Z,4.18
2022-10-05T06:33:18.651Z,3.42
2022-10-05T06:36:15.072Z,4.00
2022-10-05T06:39:01.804Z,2.88
2022-10-05T06:41:44.508Z,3.78
2022-10-05T06:44:26.062Z,3.72
2022-10-05T06:47:29.954Z,3.50
2022-10-05T06:50:14.842Z,3.67
2022-10-05T06:53:03.136Z,3.65
2022-10-05T06:55:59.402Z,3.45
2022-10-05T06:58:43.087Z,3.30
2022-10-05T07:01:27.017Z,3.50
2022-10-05T07:04:16.846Z,3.97
2022-10-05T07:06:57.701Z,3.17
2022-10-05T07:09:33.002Z,4.43
2022-10-05T07:12:18.036Z,4.47
2022-10-05T07:14:57.514Z,3.20
2022-10-05T07:17:31.299Z,3.97
2022-10-05T07:20:20.496Z,4.18
2022-10-05T07:23:04.140Z,3.72
2022-10-05T07:25:30.457Z,3.72
2022-10-05T07:28:20.765Z,3.88
2022-10-05T07:30:58.295Z,5.53
2022-10-05T07:33:33.837Z,4.38
2022-10-05T07:39:55.215Z,4.40
2022-10-05T07:42:32.458Z,5.65
2022-10-05T07:45:15.269Z,4.50
2022-10-05T07:47:51.390Z,4.72
2022-10-05T07:50:49.697Z,5.47
2022-10-05T07:53:25.853Z,5.47
2022-10-05T07:56:00.994Z,5.68
2022-10-05T07:58:30.309Z,5.38
2022-10-05T08:01:16.971Z,4.95
2022-10-05T08:03:58.674Z,5.00
2022-10-05T08:06:46.851Z,5.22
2022-10-05T08:09:32.976Z,4.50
2022-10-05T08:15:15.514Z,4.78
2022-10-05T08:17:55.231Z,3.67
2022-10-05T08:20:45.314Z,5.28
2022-10-05T08:23:20.775Z,3.53
2022-10-05T08:28:38.376Z,5.53
2022-10-05T08:31:07.651Z,4.97
2022-10-05T08:33:53.578Z,4.68
2022-10-05T08:38:55.236Z,5.30
2022-10-05T08:41:36.463Z,3.70
2022-10-05T08:44:41.947Z,5.25
2022-10-05T08:47:33.462Z,5.00
2022-10-05T08:50:10.171Z,5.75
2022-10-05T08:52:58.123Z,5.63
2022-10-05T08:55:36.476Z,4.88
2022-10-05T08:58:24.706Z,4.68
2022-10-05T09:01:06.091Z,4.50
2022-10-05T09:04:10.002Z,6.28
2022-10-05T09:07:07.048Z,5.53
2022-10-05T09:09:46.328Z,5.18
2022-10-05T09:12:42.831Z,6.38
2022-10-05T09:15:39.630Z,5.10
2022-10-05T09:18:54.250Z,5.50
2022-10-05T09:21:44.250Z,4.40
2022-10-05T09:24:33.897Z,5.05
2022-10-05T09:27:12.789Z,4.53
2022-10-05T09:29:54.251Z,4.55
2022-10-05T09:32:40.976Z,4.03
2022-10-05T09:35:16.028Z,4.45
2022-10-05T09:38:15.709Z,4.15
2022-10-05T09:40:54.218Z,4.55
2022-10-05T09:43:48.576Z,4.28
2022-10-05T09:46:34.213Z,4.55
2022-10-05T09:49:33.148Z,4.20
2022-10-05T09:52:41.744Z,4.70
2022-10-05T09:55:29.563Z,4.00
2022-10-05T09:58:36.522Z,3.22
2022-10-05T10:01:34.078Z,4.53
2022-10-05T10:04:19.280Z,4.25
2022-10-05T10:07:06.949Z,3.92
2022-10-05T10:10:14.974Z,3.50
2022-10-05T10:12:55.218Z,3.35
2022-10-05T10:15:41.149Z,3.72
2022-10-05T10:21:24.265Z,3.33
2022-10-05T10:24:20.329Z,2.85
2022-10-05T10:27:08.139Z,3.22
2022-10-05T10:29:50.861Z,2.50
2022-10-05T10:32:41.803Z,3.95
2022-10-05T10:35:32.038Z,3.50
2022-10-05T10:38:32.514Z,3.80
2022-10-05T10:41:30.115Z,3.72
2022-10-05T10:44:30.846Z,3.10
2022-10-05T10:47:08.730Z,3.53
2022-10-05T10:49:44.236Z,3.10
2022-10-05T10:55:09.552Z,2.67
2022-10-05T10:58:03.326Z,1.50
2022-10-05T11:00:47.997Z,1.95
2022-10-05T11:03:33.485Z,1.08
2022-10-05T11:06:35.988Z,1.17
2022-10-05T11:09:29.691Z,1.15
2022-10-05T11:12:34.913Z,1.05
2022-10-05T11:15:16.499Z,1.58
2022-10-05T11:18:08.915Z,1.58
2022-10-05T11:21:12.395Z,1.85
2022-10-05T11:24:03.943Z,1.00
2022-10-05T11:26:36.205Z,1.25
2022-10-05T11:29:24.724Z,1.65
2022-10-05T11:32:05.792Z,2.30
2022-10-05T11:34:43.950Z,1.38
2022-10-05T11:37:10.265Z,1.33
2022-10-05T11:40:02.555Z,1.27
2022-10-05T11:42:38.246Z,1.50
2022-10-05T11:45:26.114Z,1.50
2022-10-05T11:48:26.730Z,1.85
2022-10-05T11:51:27.805Z,1.80
2022-10-05T11:54:17.919Z,1.35
2022-10-05T11:56:56.555Z,1.60
2022-10-05T12:00:02.203Z,1.60
2022-10-05T12:02:47.013Z,2.25
2022-10-05T12:05:32.447Z,2.03
2022-10-05T12:08:13.539Z,1.38
2022-10-05T12:11:31.257Z,1.80
2022-10-05T12:14:01.792Z,1.40
2022-10-05T12:16:36.393Z,1.27
2022-10-05T12:19:22.909Z,1.53
2022-10-05T12:21:58.403Z,1.48
2022-10-05T12:27:01.334Z,1.60
2022-10-05T12:29:41.735Z,0.98
2022-10-05T12:32:21.198Z,0.95
2022-10-05T12:35:01.823Z,1.05
2022-10-05T12:37:58.484Z,0.90
2022-10-05T12:43:18.688Z,0.57
2022-10-05T12:45:55.398Z,0.90
2022-10-05T12:48:22.045Z,0.70
2022-10-05T12:51:00.720Z,0.88
2022-10-05T12:53:51.840Z,1.13
2022-10-05T12:56:28.100Z,1.00
2022-10-05T12:59:00.878Z,0.90
2022-10-05T13:01:41.642Z,1.00
2022-10-05T13:04:19.130Z,0.93
2022-10-05T13:07:04.469Z,0.70
2022-10-05T13:09:43.424Z,1.20
2022-10-05T13:12:35.072Z,0.73
2022-10-05T13:15:10.667Z,0.88
2022-10-05T13:18:06.773Z,0.70
2022-10-05T13:20:45.367Z,1.00
2022-10-05T13:23:33.606Z,0.93
2022-10-05T13:26:11.222Z,0.80
2022-10-05T13:29:04.160Z,0.75
2022-10-05T13:31:44.555Z,0.93
2022-10-05T13:34:27.991Z,0.93
2022-10-05T13:37:35.885Z,1.00
2022-10-05T13:40:28.058Z,1.20
2022-10-05T13:43:11.700Z,1.20
2022-10-05T13:45:52.670Z,1.40
2022-10-05T13:48:53.403Z,1.27
2022-10-05T13:51:47.454Z,1.15
2022-10-05T13:55:03.426Z,1.10
2022-10-05T13:57:41.983Z,1.05
2022-10-05T14:00:24.138Z,1.23
2022-10-05T14:02:56.231Z,1.15
2022-10-05T14:05:28.422Z,1.10
2022-10-05T14:08:16.247Z,0.90
2022-10-05T14:10:47.866Z,1.00
2022-10-05T14:13:27.517Z,1.52
2022-10-05T14:16:01.910Z,1.05
2022-10-05T14:18:29.098Z,1.55
2022-10-05T14:21:18.317Z,1.05
2022-10-05T14:23:44.693Z,1.35
2022-10-05T14:26:38.925Z,1.20
2022-10-05T14:29:14.476Z,0.98
2022-10-05T14:31:53.381Z,1.17
2022-10-05T14:34:45.032Z,1.30
2022-10-05T14:37:23.874Z,1.20
2022-10-05T14:39:52.225Z,1.27
2022-10-05T14:42:20.583Z,1.55
2022-10-05T14:45:12.511Z,1.23
2022-10-05T14:47:53.504Z,1.10
2022-10-05T14:50:22.741Z,1.30
2022-10-05T14:53:04.281Z,1.20
2022-10-05T14:56:08.453Z,1.17
2022-10-05T14:58:56.915Z,1.17
2022-10-05T15:01:35.138Z,0.98
2022-10-05T15:04:16.702Z,1.30
2022-10-05T15:06:55.545Z,1.10
2022-10-05T15:10:20.731Z,1.48
2022-10-05T15:12:48.063Z,1.30
2022-10-05T15:15:14.336Z,0.90
2022-10-05T15:17:49.689Z,0.70
2022-10-05T15:23:27.882Z,0.60
2022-10-05T15:26:03.163Z,1.00
2022-10-05T15:28:34.106Z,1.00
2022-10-05T15:31:12.673Z,1.08
2022-10-05T15:34:00.113Z,0.70
2022-10-05T15:36:43.810Z,0.95
2022-10-05T15:39:24.737Z,0.80
2022-10-05T15:42:06.709Z,0.73
2022-10-05T15:44:41.177Z,0.90
2022-10-05T15:47:18.984Z,1.30
2022-10-05T15:49:51.004Z,1.00
2022-10-05T15:52:29.870Z,1.10
2022-10-05T15:55:18.973Z,0.90
2022-10-05T15:58:10.201Z,1.15
2022-10-05T16:00:43.531Z,0.98
2022-10-05T16:03:19.225Z,0.90
2022-10-05T16:05:51.439Z,1.02
2022-10-05T16:08:28.694Z,1.23
2022-10-05T16:10:55.542Z,0.80
2022-10-05T16:13:36.060Z,1.17
2022-10-05T16:16:21.260Z,1.00
2022-10-05T16:19:08.738Z,0.90
2022-10-05T16:22:03.630Z,0.88
2022-10-05T16:25:04.278Z,1.13
2022-10-05T16:27:52.913Z,0.85
2022-10-05T16:30:21.834Z,1.23
2022-10-05T16:33:10.838Z,1.35
2022-10-05T16:35:57.769Z,1.20
2022-10-05T16:38:29.847Z,1.20
2022-10-05T16:41:04.882Z,1.42
2022-10-05T16:43:56.376Z,1.20
2022-10-05T16:46:28.544Z,1.30
2022-10-05T16:49:30.931Z,1.52
2022-10-05T16:52:02.228Z,1.00
2022-10-05T16:54:37.786Z,0.93
2022-10-05T16:57:10.710Z,1.20
2022-10-05T16:59:49.209Z,1.10
2022-10-05T17:02:32.206Z,1.10
2022-10-05T17:05:25.978Z,1.40
2022-10-05T17:08:35.635Z,1.30
2022-10-05T17:11:04.627Z,1.95
2022-10-05T17:13:46.566Z,2.30
2022-10-05T17:16:37.578Z,1.55
2022-10-05T17:19:19.009Z,1.75
2022-10-05T17:21:56.619Z,1.40
2022-10-05T17:24:41.668Z,2.45
2022-10-05T17:27:44.811Z,1.23
2022-10-05T17:30:47.230Z,2.22
2022-10-05T17:33:30.425Z,2.42
2022-10-05T17:35:59.557Z,1.67
2022-10-05T17:38:32.143Z,1.88
2022-10-05T17:41:16.597Z,3.55
2022-10-05T17:44:13.861Z,1.50
2022-10-05T17:46:45.098Z,1.92
2022-10-05T17:49:14.114Z,1.27
2022-10-05T17:51:40.368Z,1.50
2022-10-05T17:54:25.269Z,1.27
2022-10-05T17:56:51.538Z,1.70
2022-10-05T17:59:38.089Z,1.70
2022-10-05T18:02:15.642Z,1.45
2022-10-05T18:04:50.328Z,1.48
2022-10-05T18:07:22.993Z,1.75
2022-10-05T18:10:10.910Z,1.45
2022-10-05T18:12:37.160Z,1.70
2022-10-05T18:15:07.430Z,2.05
2022-10-05T18:17:39.805Z,2.17
2022-10-05T18:20:12.367Z,1.92
2022-10-05T18:22:38.995Z,1.50
2022-10-05T18:25:19.246Z,2.13
2022-10-05T18:28:00.323Z,1.48
2022-10-05T18:30:33.901Z,1.60
2022-10-05T18:33:18.787Z,4.43
2022-10-05T18:35:57.311Z,3.70
2022-10-05T18:39:01.166Z,1.90
2022-10-05T18:41:30.407Z,1.77
2022-10-05T18:44:22.221Z,1.80
2022-10-05T18:47:00.509Z,1.52
2022-10-05T18:49:43.111Z,1.60
2022-10-05T18:52:33.751Z,1.80
2022-10-05T18:55:18.894Z,2.40
2022-10-05T18:58:08.794Z,1.50
2022-10-05T19:01:05.398Z,1.58
2022-10-05T19:03:38.993Z,1.48
2022-10-05T19:06:13.814Z,1.50
2022-10-05T19:08:50.690Z,1.27
2022-10-05T19:11:25.511Z,1.55
2022-10-05T19:14:25.066Z,1.88
2022-10-05T19:16:51.330Z,1.25
2022-10-05T19:19:29.322Z,1.60
2022-10-05T19:22:31.505Z,0.57
2022-10-05T19:25:25.580Z,1.17
2022-10-05T19:28:06.794Z,0.70
2022-10-05T19:31:01.218Z,1.25
2022-10-05T19:33:52.875Z,0.75
2022-10-05T19:36:44.580Z,0.95
2022-10-05T19:39:18.199Z,0.98
2022-10-05T19:41:50.269Z,1.23
2022-10-05T19:44:27.544Z,1.00
2022-10-05T19:47:00.259Z,1.50
2022-10-05T19:49:43.270Z,1.00
2022-10-05T19:52:21.140Z,0.98
2022-10-05T19:55:00.354Z,1.23
2022-10-05T19:57:26.702Z,1.42
2022-10-05T19:59:56.856Z,1.75
2022-10-05T20:02:25.609Z,1.58
2022-10-05T20:04:51.985Z,1.90
2022-10-05T20:07:19.495Z,1.77
2022-10-05T20:10:14.177Z,1.00
2022-10-05T20:12:54.381Z,1.42
2022-10-05T20:15:23.397Z,0.77
2022-10-05T20:17:49.846Z,1.13
2022-10-05T20:20:30.298Z,1.20
2022-10-05T20:23:19.581Z,0.80
2022-10-05T20:25:45.938Z,1.20
2022-10-05T20:28:12.299Z,1.13
2022-10-05T20:30:38.759Z,0.85
2022-10-05T20:33:06.204Z,1.27
2022-10-05T20:35:32.514Z,1.92
2022-10-05T20:37:59.175Z,1.40
2022-10-05T20:40:29.497Z,1.10
2022-10-05T20:42:56.923Z,1.40
2022-10-05T20:45:23.594Z,1.65
2022-10-05T20:47:49.941Z,1.45
2022-10-05T20:50:16.402Z,1.50
2022-10-05T20:52:42.874Z,1.40
2022-10-05T20:55:10.960Z,0.80
2022-10-05T20:57:37.679Z,0.95
2022-10-05T21:00:05.764Z,0.60
2022-10-05T21:02:33.636Z,0.60
2022-10-05T21:05:00.011Z,1.98
2022-10-05T21:07:26.328Z,1.10
2022-10-05T21:09:52.750Z,1.35
2022-10-05T21:12:19.047Z,1.30
2022-10-05T21:14:45.338Z,1.65
2022-10-05T21:17:11.656Z,1.50
2022-10-05T21:19:38.002Z,1.50
2022-10-05T21:22:07.104Z,1.33
2022-10-05T21:24:35.044Z,1.48
2022-10-05T21:27:02.687Z,1.10
2022-10-05T21:29:29.956Z,1.20
2022-10-05T21:31:56.619Z,1.50
2022-10-05T21:34:23.239Z,1.25
2022-10-05T21:36:49.742Z,1.92
2022-10-05T21:39:16.395Z,1.30
2022-10-05T21:41:42.746Z,1.58
2022-10-05T21:44:09.051Z,1.42
2022-10-05T21:46:38.024Z,1.30
2022-10-05T21:49:07.271Z,1.30
2022-10-05T21:51:34.578Z,1.23
2022-10-05T21:54:09.225Z,1.65
2022-10-05T21:56:40.034Z,1.30
2022-10-05T21:59:10.811Z,1.20
2022-10-05T22:01:37.278Z,1.00
2022-10-05T22:04:04.980Z,1.42
2022-10-05T22:06:31.707Z,1.10
2022-10-05T22:08:58.637Z,1.00
2022-10-05T22:11:25.729Z,1.52
2022-10-05T22:13:53.011Z,1.02
2022-10-05T22:16:23.895Z,1.27
2022-10-05T22:18:50.327Z,1.10
2022-10-05T22:21:17.231Z,1.02
2022-10-05T22:23:45.732Z,1.35
2022-10-05T22:26:15.571Z,1.58
2022-10-05T22:28:43.257Z,1.40
2022-10-05T22:31:18.610Z,1.40
2022-10-05T22:33:45.153Z,1.15
2022-10-05T22:36:11.975Z,1.02
2022-10-05T22:38:38.448Z,1.63
2022-10-05T22:41:09.925Z,1.10
2022-10-05T22:43:37.296Z,1.30
2022-10-05T22:46:13.427Z,1.45
2022-10-05T22:48:40.303Z,0.98
2022-10-05T22:51:07.546Z,1.13
2022-10-05T22:53:34.928Z,1.23
2022-10-05T22:56:09.371Z,1.35
2022-10-05T22:58:36.453Z,0.80
2022-10-05T23:01:06.168Z,1.25
2022-10-05T23:03:33.538Z,1.30
2022-10-05T23:06:05.157Z,1.25
2022-10-05T23:08:32.900Z,1.50
2022-10-05T23:11:21.256Z,1.33
2022-10-05T23:13:47.585Z,1.08
2022-10-05T23:16:16.549Z,1.23
2022-10-05T23:18:44.296Z,1.20
2022-10-05T23:21:11.129Z,1.10
2022-10-05T23:23:42.972Z,1.30
2022-10-05T23:26:11.104Z,1.42
2022-10-05T23:28:39.528Z,1.02
2022-10-05T23:31:08.040Z,1.27
2022-10-05T23:33:35.502Z,1.10
2022-10-05T23:36:08.234Z,1.55
2022-10-05T23:38:36.087Z,1.50
2022-10-05T23:41:02.744Z,1.30
2022-10-05T23:43:29.609Z,1.17
2022-10-05T23:45:56.312Z,1.23
2022-10-05T23:48:22.732Z,1.65
2022-10-05T23:50:49.788Z,1.17
2022-10-05T23:53:17.507Z,1.42
2022-10-05T23:55:43.846Z,1.30
2022-10-05T23:58:11.440Z,1.45
